createdAt,value
2019-05-21T00:00:07.201Z,15.48
2019-05-21T00:01:07.259Z,15.46
2019-05-21T00:02:07.316Z,15.52
2019-05-21T00:03:07.375Z,15.49
2019-05-21T00:04:07.435Z,15.44
2019-05-21T00:05:07.492Z,15.51
2019-05-21T00:06:07.550Z,15.43
2019-05-21T00:07:07.606Z,15.55
2019-05-21T00:08:07.666Z,15.49
2019-05-21T00:09:07.723Z,15.41
2019-05-21T00:10:07.780Z,15.41
2019-05-21T00:11:07.838Z,15.40
2019-05-21T00:12:07.897Z,15.37
2019-05-21T00:13:07.955Z,15.44
2019-05-21T00:14:08.013Z,15.46
2019-05-21T00:15:08.070Z,15.41
2019-05-21T00:16:08.128Z,15.51
2019-05-21T00:17:08.570Z,15.48
2019-05-21T00:18:08.246Z,15.48
2019-05-21T00:19:08.302Z,15.46
2019-05-21T00:20:08.360Z,15.46
2019-05-21T00:21:08.420Z,15.46
2019-05-21T00:22:08.477Z,15.48
2019-05-21T00:23:08.535Z,15.34
2019-05-21T00:24:08.591Z,15.33
2019-05-21T00:25:08.653Z,15.38
2019-05-21T00:26:08.708Z,15.33
2019-05-21T00:27:08.770Z,15.34
2019-05-21T00:28:08.824Z,15.41
2019-05-21T00:29:08.882Z,15.41
2019-05-21T00:30:08.940Z,15.35
2019-05-21T00:31:08.997Z,15.38
2019-05-21T00:32:09.055Z,15.41
2019-05-21T00:33:09.114Z,15.41
2019-05-21T00:34:09.172Z,15.35
2019-05-21T00:35:09.229Z,15.38
2019-05-21T00:36:09.288Z,15.41
2019-05-21T00:37:09.393Z,15.41
2019-05-21T00:38:09.403Z,15.40
2019-05-21T00:39:09.461Z,15.38
2019-05-21T00:40:09.519Z,15.33
2019-05-21T00:41:09.578Z,15.35
2019-05-21T00:42:09.635Z,15.35
2019-05-21T00:43:09.713Z,15.38
2019-05-21T00:44:09.750Z,15.37
2019-05-21T00:45:09.820Z,15.38
2019-05-21T00:46:09.866Z,15.35
2019-05-21T00:47:09.927Z,15.38
2019-05-21T00:48:09.986Z,15.40
2019-05-21T00:49:10.041Z,15.40
2019-05-21T00:50:10.099Z,15.40
2019-05-21T00:51:10.157Z,15.35
2019-05-21T00:52:10.217Z,15.33
2019-05-21T00:53:10.272Z,15.23
2019-05-21T00:54:10.330Z,15.34
2019-05-21T00:55:10.389Z,15.25
2019-05-21T00:56:10.447Z,15.27
2019-05-21T00:57:10.506Z,15.23
2019-05-21T00:58:10.562Z,15.31
2019-05-21T00:59:10.640Z,15.37
2019-05-21T01:00:11.057Z,15.34
2019-05-21T01:01:10.737Z,15.31
2019-05-21T01:02:10.798Z,15.34
2019-05-21T01:03:10.851Z,15.38
2019-05-21T01:04:10.910Z,15.30
2019-05-21T01:05:10.968Z,15.35
2019-05-21T01:06:11.025Z,15.41
2019-05-21T01:07:11.083Z,15.34
2019-05-21T01:08:11.141Z,15.37
2019-05-21T01:09:11.203Z,15.41
2019-05-21T01:10:11.258Z,15.34
2019-05-21T01:11:11.314Z,15.38
2019-05-21T01:12:11.384Z,15.38
2019-05-21T01:13:11.431Z,15.40
2019-05-21T01:14:11.494Z,15.40
2019-05-21T01:15:11.546Z,15.37
2019-05-21T01:16:11.605Z,15.41
2019-05-21T01:17:11.799Z,15.38
2019-05-21T01:18:11.719Z,15.48
2019-05-21T01:19:11.779Z,15.27
2019-05-21T01:20:11.836Z,15.28
2019-05-21T01:21:11.896Z,15.31
2019-05-21T01:22:11.952Z,15.25
2019-05-21T01:23:12.010Z,15.37
2019-05-21T01:24:12.068Z,15.38
2019-05-21T01:25:12.128Z,15.35
2019-05-21T01:26:12.184Z,15.37
2019-05-21T01:27:12.242Z,15.37
2019-05-21T01:28:12.300Z,15.35
2019-05-21T01:29:12.359Z,15.35
2019-05-21T01:30:12.416Z,15.33
2019-05-21T01:31:12.473Z,15.41
2019-05-21T01:32:12.534Z,15.37
2019-05-21T01:33:12.590Z,15.37
2019-05-21T01:34:12.649Z,15.34
2019-05-21T01:35:17.152Z,15.35
2019-05-21T01:36:12.763Z,15.49
2019-05-21T01:37:12.822Z,15.41
2019-05-21T01:38:12.877Z,15.48
2019-05-21T01:39:12.938Z,15.49
2019-05-21T01:40:13.011Z,15.49
2019-05-21T01:41:13.056Z,15.48
2019-05-21T01:42:13.109Z,15.35
2019-05-21T01:43:13.167Z,15.38
2019-05-21T01:44:13.228Z,15.37
2019-05-21T01:45:13.335Z,15.30
2019-05-21T01:46:13.340Z,15.35
2019-05-21T01:47:13.469Z,15.40
2019-05-21T01:48:13.459Z,15.34
2019-05-21T01:49:13.516Z,15.28
2019-05-21T01:50:13.574Z,15.33
2019-05-21T01:51:13.638Z,15.31
2019-05-21T01:52:13.690Z,15.31
2019-05-21T01:53:13.748Z,15.37
2019-05-21T01:54:13.806Z,15.34
2019-05-21T01:55:13.863Z,15.41
2019-05-21T01:56:13.920Z,15.34
2019-05-21T01:57:13.980Z,15.28
2019-05-21T01:58:14.042Z,15.38
2019-05-21T01:59:14.095Z,15.37
2019-05-21T02:00:14.152Z,15.33
2019-05-21T02:01:14.211Z,15.30
2019-05-21T02:02:14.268Z,15.23
2019-05-21T02:03:14.325Z,15.35
2019-05-21T02:04:14.383Z,15.40
2019-05-21T02:05:14.443Z,15.37
2019-05-21T02:06:14.500Z,15.34
2019-05-21T02:07:14.556Z,15.30
2019-05-21T02:08:14.615Z,15.40
2019-05-21T02:09:14.676Z,15.37
2019-05-21T02:10:14.778Z,15.37
2019-05-21T02:11:14.790Z,15.33
2019-05-21T02:12:14.847Z,15.35
2019-05-21T02:13:14.906Z,15.35
2019-05-21T02:14:15.018Z,15.35
2019-05-21T02:15:15.020Z,15.40
2019-05-21T02:16:15.081Z,15.37
2019-05-21T02:17:15.137Z,15.33
2019-05-21T02:18:15.197Z,15.27
2019-05-21T02:19:15.374Z,15.22
2019-05-21T02:20:15.311Z,15.30
2019-05-21T02:21:15.375Z,15.25
2019-05-21T02:22:15.429Z,15.20
2019-05-21T02:23:15.486Z,15.22
2019-05-21T02:24:15.543Z,15.22
2019-05-21T02:25:15.600Z,15.20
2019-05-21T02:26:15.657Z,15.18
2019-05-21T02:27:15.716Z,15.28
2019-05-21T02:28:15.774Z,15.25
2019-05-21T02:29:15.835Z,15.30
2019-05-21T02:30:15.890Z,15.15
2019-05-21T02:31:15.951Z,15.19
2019-05-21T02:32:16.008Z,15.18
2019-05-21T02:33:16.065Z,15.25
2019-05-21T02:34:16.121Z,15.23
2019-05-21T02:35:16.179Z,15.31
2019-05-21T02:36:16.240Z,15.23
2019-05-21T02:37:16.296Z,15.18
2019-05-21T02:38:16.352Z,15.13
2019-05-21T02:39:16.410Z,15.23
2019-05-21T02:40:16.470Z,15.23
2019-05-21T02:41:16.531Z,15.11
2019-05-21T02:42:16.584Z,15.12
2019-05-21T02:43:16.645Z,15.11
2019-05-21T02:44:16.701Z,15.09
2019-05-21T02:45:16.763Z,15.01
2019-05-21T02:46:16.817Z,15.07
2019-05-21T02:47:16.874Z,14.93
2019-05-21T02:48:16.936Z,14.95
2019-05-21T02:49:16.987Z,14.95
2019-05-21T02:50:17.046Z,14.93
2019-05-21T02:51:17.105Z,14.85
2019-05-21T02:52:17.164Z,14.83
2019-05-21T02:53:17.220Z,14.83
2019-05-21T02:54:17.281Z,14.83
2019-05-21T02:55:17.339Z,14.85
2019-05-21T02:56:17.395Z,14.83
2019-05-21T02:57:17.453Z,14.85
2019-05-21T02:58:17.507Z,14.86
2019-05-21T02:59:17.584Z,14.87
2019-05-21T03:00:17.623Z,14.82
2019-05-21T03:01:18.069Z,14.79
2019-05-21T03:02:17.737Z,14.78
2019-05-21T03:03:17.796Z,14.86
2019-05-21T03:04:17.852Z,14.75
2019-05-21T03:05:17.913Z,14.79
2019-05-21T03:06:17.972Z,14.80
2019-05-21T03:07:18.053Z,14.83
2019-05-21T03:08:18.092Z,14.83
2019-05-21T03:09:18.142Z,14.83
2019-05-21T03:10:18.203Z,14.83
2019-05-21T03:11:18.256Z,14.83
2019-05-21T03:12:18.343Z,14.78
2019-05-21T03:13:18.371Z,14.74
2019-05-21T03:14:18.426Z,14.83
2019-05-21T03:15:18.484Z,14.82
2019-05-21T03:16:18.543Z,14.85
2019-05-21T03:17:18.601Z,14.79
2019-05-21T03:18:18.660Z,14.82
2019-05-21T03:19:18.715Z,14.80
2019-05-21T03:20:18.773Z,14.78
2019-05-21T03:21:18.836Z,14.78
2019-05-21T03:22:18.885Z,14.78
2019-05-21T03:23:18.943Z,14.82
2019-05-21T03:24:19.313Z,14.75
2019-05-21T03:25:19.059Z,14.87
2019-05-21T03:26:19.114Z,14.74
2019-05-21T03:27:19.200Z,14.82
2019-05-21T03:28:19.233Z,14.75
2019-05-21T03:29:19.289Z,14.78
2019-05-21T03:30:19.347Z,14.75
2019-05-21T03:31:19.408Z,14.79
2019-05-21T03:32:19.463Z,14.79
2019-05-21T03:33:19.638Z,14.75
2019-05-21T03:34:19.580Z,14.80
2019-05-21T03:35:19.633Z,14.79
2019-05-21T03:36:32.651Z,14.79
2019-05-21T03:37:19.748Z,14.79
2019-05-21T03:38:19.803Z,14.79
2019-05-21T03:39:19.947Z,14.78
2019-05-21T03:40:19.943Z,14.83
2019-05-21T03:41:20.004Z,14.72
2019-05-21T03:42:20.043Z,14.82
2019-05-21T03:43:20.094Z,14.86
2019-05-21T03:44:20.152Z,14.86
2019-05-21T03:45:20.208Z,14.90
2019-05-21T03:46:20.266Z,14.87
2019-05-21T03:47:20.321Z,14.80
2019-05-21T03:48:20.386Z,14.91
2019-05-21T03:49:20.439Z,14.93
2019-05-21T03:50:20.496Z,14.85
2019-05-21T03:51:20.554Z,14.83
2019-05-21T03:52:20.611Z,14.86
2019-05-21T03:53:20.671Z,14.83
2019-05-21T03:54:20.729Z,14.83
2019-05-21T03:55:20.787Z,14.83
2019-05-21T03:56:20.846Z,14.82
2019-05-21T03:57:20.901Z,14.74
2019-05-21T03:58:20.956Z,14.85
2019-05-21T03:59:21.013Z,14.83
2019-05-21T04:00:21.071Z,14.86
2019-05-21T04:01:21.165Z,14.86
2019-05-21T04:02:21.496Z,14.75
2019-05-21T04:03:21.256Z,14.83
2019-05-21T04:04:21.303Z,14.87
2019-05-21T04:05:21.359Z,14.82
2019-05-21T04:06:21.419Z,14.83
2019-05-21T04:07:21.485Z,14.74
2019-05-21T04:08:21.536Z,14.80
2019-05-21T04:09:21.589Z,14.82
2019-05-21T04:10:21.646Z,14.80
2019-05-21T04:11:22.395Z,14.79
2019-05-21T04:12:21.762Z,14.79
2019-05-21T04:13:21.820Z,14.75
2019-05-21T04:14:21.878Z,14.82
2019-05-21T04:15:21.940Z,14.79
2019-05-21T04:16:21.996Z,14.75
2019-05-21T04:17:22.051Z,14.75
2019-05-21T04:18:22.112Z,14.66
2019-05-21T04:19:22.166Z,14.67
2019-05-21T04:20:22.222Z,14.75
2019-05-21T04:21:22.284Z,14.78
2019-05-21T04:22:22.337Z,14.67
2019-05-21T04:23:22.394Z,14.67
2019-05-21T04:24:22.452Z,14.66
2019-05-21T04:25:22.512Z,14.69
2019-05-21T04:26:22.572Z,14.79
2019-05-21T04:27:22.625Z,14.83
2019-05-21T04:28:22.683Z,14.78
2019-05-21T04:29:22.747Z,14.69
2019-05-21T04:30:22.797Z,14.67
2019-05-21T04:31:22.856Z,14.67
2019-05-21T04:32:22.915Z,14.59
2019-05-21T04:33:22.971Z,14.60
2019-05-21T04:34:23.434Z,14.57
2019-05-21T04:35:23.086Z,14.56
2019-05-21T04:36:23.156Z,14.56
2019-05-21T04:37:23.204Z,14.56
2019-05-21T04:38:23.257Z,14.46
2019-05-21T04:39:23.333Z,14.53
2019-05-21T04:40:23.374Z,14.54
2019-05-21T04:41:23.431Z,14.48
2019-05-21T04:42:23.488Z,14.56
2019-05-21T04:43:23.554Z,14.42
2019-05-21T04:44:23.603Z,14.41
2019-05-21T04:45:23.662Z,14.42
2019-05-21T04:46:23.720Z,14.49
2019-05-21T04:47:23.781Z,14.46
2019-05-21T04:48:23.833Z,14.48
2019-05-21T04:49:23.891Z,14.46
2019-05-21T04:50:23.946Z,14.41
2019-05-21T04:51:24.015Z,14.39
2019-05-21T04:52:24.062Z,14.44
2019-05-21T04:53:24.125Z,14.49
2019-05-21T04:54:24.176Z,14.46
2019-05-21T04:55:24.235Z,14.53
2019-05-21T04:56:24.294Z,14.45
2019-05-21T04:57:24.362Z,14.46
2019-05-21T04:58:24.421Z,14.57
2019-05-21T04:59:24.466Z,14.57
2019-05-21T05:00:24.522Z,14.45
2019-05-21T05:01:24.579Z,14.42
2019-05-21T05:02:24.636Z,14.44
2019-05-21T05:03:24.694Z,14.39
2019-05-21T05:04:24.753Z,14.35
2019-05-21T05:05:24.809Z,14.29
2019-05-21T05:06:24.893Z,14.35
2019-05-21T05:07:28.350Z,14.27
2019-05-21T05:08:24.980Z,14.21
2019-05-21T05:09:25.040Z,14.23
2019-05-21T05:10:25.094Z,14.20
2019-05-21T05:11:25.155Z,14.24
2019-05-21T05:12:25.209Z,14.12
2019-05-21T05:13:25.300Z,14.16
2019-05-21T05:14:25.353Z,14.16
2019-05-21T05:15:25.383Z,14.13
2019-05-21T05:16:25.446Z,14.21
2019-05-21T05:17:25.495Z,14.24
2019-05-21T05:18:25.551Z,14.13
2019-05-21T05:19:25.931Z,14.17
2019-05-21T05:20:25.667Z,14.06
2019-05-21T05:21:25.725Z,14.11
2019-05-21T05:22:25.782Z,14.06
2019-05-21T05:23:25.856Z,14.09
2019-05-21T05:24:25.909Z,14.11
2019-05-21T05:25:25.953Z,14.06
2019-05-21T05:26:26.011Z,14.06
2019-05-21T05:27:26.577Z,14.11
2019-05-21T05:28:26.125Z,14.13
2019-05-21T05:29:26.181Z,14.05
2019-05-21T05:30:26.238Z,14.05
2019-05-21T05:31:26.298Z,13.99
2019-05-21T05:32:26.356Z,14.08
2019-05-21T05:33:26.416Z,14.08
2019-05-21T05:34:26.473Z,14.11
2019-05-21T05:35:26.526Z,14.08
2019-05-21T05:36:26.583Z,14.06
2019-05-21T05:37:42.573Z,14.17
2019-05-21T05:38:26.711Z,14.20
2019-05-21T05:39:26.754Z,14.11
2019-05-21T05:40:26.811Z,14.02
2019-05-21T05:41:26.872Z,14.05
2019-05-21T05:42:26.926Z,13.99
2019-05-21T05:43:26.982Z,13.98
2019-05-21T05:44:27.039Z,14.04
2019-05-21T05:45:27.098Z,14.06
2019-05-21T05:46:27.154Z,14.13
2019-05-21T05:47:27.210Z,14.04
2019-05-21T05:48:27.266Z,14.13
2019-05-21T05:49:27.324Z,14.11
2019-05-21T05:50:27.381Z,14.09
2019-05-21T05:51:27.438Z,14.17
2019-05-21T05:52:27.496Z,14.11
2019-05-21T05:53:27.552Z,14.16
2019-05-21T05:54:27.610Z,14.06
2019-05-21T05:55:27.671Z,13.98
2019-05-21T05:56:27.724Z,13.98
2019-05-21T05:57:27.779Z,14.06
2019-05-21T05:58:27.861Z,14.09
2019-05-21T05:59:27.895Z,14.08
2019-05-21T06:00:27.951Z,14.12
2019-05-21T06:01:28.009Z,14.13
2019-05-21T06:02:28.065Z,14.17
2019-05-21T06:03:28.123Z,14.24
2019-05-21T06:04:30.497Z,14.21
2019-05-21T06:05:28.237Z,14.26
2019-05-21T06:06:28.295Z,14.29
2019-05-21T06:07:28.349Z,14.34
2019-05-21T06:08:28.406Z,14.29
2019-05-21T06:09:28.464Z,14.24
2019-05-21T06:10:28.529Z,14.24
2019-05-21T06:11:28.579Z,14.27
2019-05-21T06:12:28.637Z,14.23
2019-05-21T06:13:28.694Z,14.24
2019-05-21T06:14:28.784Z,14.27
2019-05-21T06:15:28.808Z,14.26
2019-05-21T06:16:28.877Z,14.27
2019-05-21T06:17:28.920Z,14.24
2019-05-21T06:18:28.977Z,14.17
2019-05-21T06:19:29.035Z,14.20
2019-05-21T06:20:29.092Z,14.13
2019-05-21T06:21:29.149Z,14.08
2019-05-21T06:22:29.205Z,14.19
2019-05-21T06:23:29.308Z,14.17
2019-05-21T06:24:29.320Z,14.20
2019-05-21T06:25:29.378Z,14.24
2019-05-21T06:26:29.433Z,14.16
2019-05-21T06:27:29.493Z,14.12
2019-05-21T06:28:29.548Z,14.29
2019-05-21T06:29:29.606Z,14.23
2019-05-21T06:30:29.690Z,14.20
2019-05-21T06:31:29.720Z,14.21
2019-05-21T06:32:29.788Z,14.23
2019-05-21T06:33:29.834Z,14.20
2019-05-21T06:34:29.889Z,14.08
2019-05-21T06:35:29.948Z,14.06
2019-05-21T06:36:30.005Z,14.08
2019-05-21T06:37:30.062Z,13.99
2019-05-21T06:38:30.118Z,14.02
2019-05-21T06:39:30.179Z,14.05
2019-05-21T06:40:30.235Z,14.06
2019-05-21T06:41:30.291Z,14.08
2019-05-21T06:42:30.346Z,14.12
2019-05-21T06:43:30.405Z,14.12
2019-05-21T06:44:30.461Z,14.09
2019-05-21T06:45:30.517Z,13.99
2019-05-21T06:46:30.575Z,14.09
2019-05-21T06:47:30.635Z,14.11
2019-05-21T06:48:30.693Z,14.09
2019-05-21T06:49:30.746Z,14.09
2019-05-21T06:50:30.801Z,14.04
2019-05-21T06:51:30.979Z,13.98
2019-05-21T06:52:30.915Z,13.98
2019-05-21T06:53:30.973Z,13.98
2019-05-21T06:54:31.028Z,14.01
2019-05-21T06:55:31.088Z,13.91
2019-05-21T06:56:31.157Z,13.94
2019-05-21T06:57:31.202Z,14.04
2019-05-21T06:58:31.256Z,13.91
2019-05-21T06:59:31.313Z,13.96
2019-05-21T07:00:31.371Z,13.88
2019-05-21T07:01:31.431Z,13.93
2019-05-21T07:02:31.484Z,13.91
2019-05-21T07:03:31.544Z,13.88
2019-05-21T07:04:31.599Z,14.01
2019-05-21T07:05:31.657Z,14.01
2019-05-21T07:06:31.716Z,13.99
2019-05-21T07:07:31.770Z,14.02
2019-05-21T07:08:35.113Z,14.01
2019-05-21T07:09:31.884Z,13.94
2019-05-21T07:10:31.944Z,13.98
2019-05-21T07:11:31.997Z,14.01
2019-05-21T07:12:32.054Z,13.96
2019-05-21T07:13:32.127Z,14.06
2019-05-21T07:14:32.167Z,14.16
2019-05-21T07:15:32.226Z,14.27
2019-05-21T07:16:32.281Z,14.24
2019-05-21T07:17:32.343Z,14.23
2019-05-21T07:18:32.398Z,14.27
2019-05-21T07:19:32.452Z,14.19
2019-05-21T07:20:32.516Z,14.21
2019-05-21T07:21:32.594Z,14.20
2019-05-21T07:22:32.640Z,14.34
2019-05-21T07:23:32.681Z,14.36
2019-05-21T07:24:32.739Z,14.31
2019-05-21T07:25:32.797Z,14.38
2019-05-21T07:26:32.856Z,14.38
2019-05-21T07:27:32.911Z,14.46
2019-05-21T07:28:32.979Z,14.53
2019-05-21T07:29:33.027Z,14.48
2019-05-21T07:30:33.090Z,14.48
2019-05-21T07:31:33.141Z,14.54
2019-05-21T07:32:33.209Z,14.56
2019-05-21T07:33:33.255Z,14.59
2019-05-21T07:34:33.323Z,14.57
2019-05-21T07:35:33.373Z,14.53
2019-05-21T07:36:33.433Z,14.60
2019-05-21T07:37:33.490Z,14.67
2019-05-21T07:38:33.544Z,14.66
2019-05-21T07:39:33.988Z,14.63
2019-05-21T07:40:33.663Z,14.75
2019-05-21T07:41:33.721Z,14.74
2019-05-21T07:42:33.775Z,14.66
2019-05-21T07:43:33.878Z,14.64
2019-05-21T07:44:33.895Z,14.75
2019-05-21T07:45:33.947Z,14.72
2019-05-21T07:46:34.005Z,14.57
2019-05-21T07:47:34.112Z,14.69
2019-05-21T07:48:34.121Z,14.78
2019-05-21T07:49:34.218Z,14.79
2019-05-21T07:50:34.235Z,14.79
2019-05-21T07:51:34.302Z,14.80
2019-05-21T07:52:34.415Z,14.82
2019-05-21T07:53:34.410Z,14.87
2019-05-21T07:54:34.547Z,14.78
2019-05-21T07:55:35.009Z,14.79
2019-05-21T07:56:34.608Z,14.85
2019-05-21T07:57:34.647Z,14.91
2019-05-21T07:58:34.702Z,14.94
2019-05-21T07:59:34.757Z,14.97
2019-05-21T08:00:34.815Z,14.93
2019-05-21T08:01:34.872Z,14.94
2019-05-21T08:02:34.931Z,14.95
2019-05-21T08:03:34.988Z,14.94
2019-05-21T08:04:35.101Z,14.97
2019-05-21T08:05:35.112Z,14.93
2019-05-21T08:06:35.161Z,14.91
2019-05-21T08:07:35.218Z,14.95
2019-05-21T08:08:35.280Z,14.85
2019-05-21T08:09:35.364Z,14.80
2019-05-21T08:10:35.392Z,14.87
2019-05-21T08:11:35.455Z,14.85
2019-05-21T08:12:39.519Z,14.98
2019-05-21T08:13:35.613Z,14.90
2019-05-21T08:14:35.626Z,14.90
2019-05-21T08:15:35.682Z,14.97
2019-05-21T08:16:35.740Z,14.97
2019-05-21T08:17:35.797Z,14.98
2019-05-21T08:18:35.857Z,14.90
2019-05-21T08:19:35.913Z,14.90
2019-05-21T08:20:35.984Z,14.90
2019-05-21T08:21:36.030Z,14.82
2019-05-21T08:22:36.088Z,14.82
2019-05-21T08:23:36.147Z,14.85
2019-05-21T08:24:36.204Z,14.82
2019-05-21T08:25:36.259Z,14.90
2019-05-21T08:26:36.318Z,14.83
2019-05-21T08:27:36.374Z,14.80
2019-05-21T08:28:36.433Z,14.64
2019-05-21T08:29:36.799Z,14.64
2019-05-21T08:30:36.864Z,14.75
2019-05-21T08:31:36.605Z,14.67
2019-05-21T08:32:36.681Z,14.61
2019-05-21T08:33:36.729Z,14.57
2019-05-21T08:34:36.778Z,14.67
2019-05-21T08:35:36.837Z,14.72
2019-05-21T08:36:36.895Z,14.66
2019-05-21T08:37:36.958Z,14.63
2019-05-21T08:38:37.014Z,14.59
2019-05-21T08:39:37.067Z,14.63
2019-05-21T08:40:37.133Z,14.54
2019-05-21T08:41:37.184Z,14.59
2019-05-21T08:42:37.240Z,14.61
2019-05-21T08:43:37.299Z,14.79
2019-05-21T08:44:37.360Z,14.80
2019-05-21T08:45:37.413Z,14.86
2019-05-21T08:46:37.470Z,14.78
2019-05-21T08:47:37.529Z,14.78
2019-05-21T08:48:37.588Z,14.79
2019-05-21T08:49:37.643Z,14.66
2019-05-21T08:50:37.701Z,14.57
2019-05-21T08:51:37.760Z,14.59
2019-05-21T08:52:37.817Z,14.60
2019-05-21T08:53:38.282Z,14.61
2019-05-21T08:54:37.951Z,14.53
2019-05-21T08:55:37.994Z,14.66
2019-05-21T08:56:38.049Z,14.63
2019-05-21T08:57:38.424Z,14.63
2019-05-21T08:58:38.162Z,14.59
2019-05-21T08:59:38.220Z,14.66
2019-05-21T09:00:38.282Z,14.53
2019-05-21T09:01:38.344Z,14.54
2019-05-21T09:02:38.394Z,14.52
2019-05-21T09:03:38.452Z,14.64
2019-05-21T09:04:46.469Z,14.64
2019-05-21T09:05:38.707Z,14.61
2019-05-21T09:06:39.062Z,14.59
2019-05-21T09:07:38.682Z,14.54
2019-05-21T09:08:38.741Z,14.53
2019-05-21T09:09:50.259Z,14.63
2019-05-21T09:10:38.856Z,14.53
2019-05-21T09:11:38.924Z,14.48
2019-05-21T09:12:39.467Z,14.39
2019-05-21T09:13:39.031Z,14.29
2019-05-21T09:14:39.093Z,14.36
2019-05-21T09:15:39.164Z,14.34
2019-05-21T09:16:39.212Z,14.38
2019-05-21T09:17:39.261Z,14.48
2019-05-21T09:18:39.317Z,14.41
2019-05-21T09:19:39.374Z,14.39
2019-05-21T09:20:39.432Z,14.30
2019-05-21T09:21:39.516Z,14.42
2019-05-21T09:22:39.545Z,14.42
2019-05-21T09:23:39.603Z,14.29
2019-05-21T09:24:39.663Z,14.30
2019-05-21T09:25:39.762Z,14.26
2019-05-21T09:26:39.780Z,14.38
2019-05-21T09:27:39.848Z,14.29
2019-05-21T09:28:39.892Z,14.35
2019-05-21T09:29:39.950Z,14.46
2019-05-21T09:30:40.005Z,14.34
2019-05-21T09:31:40.066Z,14.42
2019-05-21T09:32:40.142Z,14.35
2019-05-21T09:33:40.181Z,14.36
2019-05-21T09:34:48.864Z,14.39
2019-05-21T09:35:40.302Z,14.30
2019-05-21T09:36:40.351Z,14.30
2019-05-21T09:37:40.408Z,14.27
2019-05-21T09:38:40.465Z,14.39
2019-05-21T09:39:40.521Z,14.34
2019-05-21T09:40:40.584Z,14.42
2019-05-21T09:41:40.638Z,14.49
2019-05-21T09:42:40.694Z,14.49
2019-05-21T09:43:40.752Z,14.53
2019-05-21T09:44:40.814Z,14.44
2019-05-21T09:45:40.868Z,14.54
2019-05-21T09:46:40.926Z,14.59
2019-05-21T09:47:40.984Z,14.59
2019-05-21T09:48:41.040Z,14.61
2019-05-21T09:49:41.098Z,14.53
2019-05-21T09:50:41.166Z,14.59
2019-05-21T09:51:41.215Z,14.60
2019-05-21T09:52:41.281Z,14.60
2019-05-21T09:53:41.329Z,14.60
2019-05-21T09:54:41.385Z,14.75
2019-05-21T09:55:41.445Z,14.85
2019-05-21T09:56:41.502Z,14.79
2019-05-21T09:57:41.559Z,14.91
2019-05-21T09:58:42.254Z,14.87
2019-05-21T09:59:41.685Z,15.00
2019-05-21T10:00:43.835Z,15.04
2019-05-21T10:01:47.274Z,14.98
2019-05-21T10:02:42.299Z,14.94
2019-05-21T10:03:41.959Z,15.03
2019-05-21T10:04:42.565Z,14.94
2019-05-21T10:05:42.021Z,14.85
2019-05-21T10:06:42.087Z,14.97
2019-05-21T10:07:42.137Z,14.80
2019-05-21T10:08:42.198Z,14.79
2019-05-21T10:09:42.258Z,14.75
2019-05-21T10:10:42.313Z,14.72
2019-05-21T10:11:42.372Z,14.79
2019-05-21T10:12:42.427Z,14.80
2019-05-21T10:13:42.486Z,14.83
2019-05-21T10:14:42.542Z,14.80
2019-05-21T10:15:42.601Z,14.74
2019-05-21T10:16:42.663Z,14.75
2019-05-21T10:17:42.730Z,14.79
2019-05-21T10:18:42.804Z,14.74
2019-05-21T10:19:42.855Z,14.74
2019-05-21T10:20:42.890Z,14.78
2019-05-21T10:21:42.948Z,14.80
2019-05-21T10:22:43.007Z,14.83
2019-05-21T10:23:43.065Z,14.80
2019-05-21T10:24:43.123Z,14.75
2019-05-21T10:25:43.181Z,14.82
2019-05-21T10:26:43.275Z,14.86
2019-05-21T10:27:43.294Z,14.83
2019-05-21T10:28:43.375Z,14.74
2019-05-21T10:29:43.411Z,14.85
2019-05-21T10:30:43.468Z,14.83
2019-05-21T10:31:43.527Z,14.82
2019-05-21T10:32:43.587Z,14.87
2019-05-21T10:33:43.654Z,14.80
2019-05-21T10:34:43.705Z,14.75
2019-05-21T10:35:43.758Z,14.86
2019-05-21T10:36:43.823Z,14.74
2019-05-21T10:37:54.587Z,14.79
2019-05-21T10:38:43.931Z,14.79
2019-05-21T10:39:43.992Z,14.75
2019-05-21T10:40:44.048Z,14.64
2019-05-21T10:41:46.155Z,14.74
2019-05-21T10:42:44.161Z,14.79
2019-05-21T10:43:44.221Z,14.63
2019-05-21T10:44:44.280Z,14.71
2019-05-21T10:45:44.356Z,14.66
2019-05-21T10:46:44.398Z,14.59
2019-05-21T10:47:44.459Z,14.57
2019-05-21T10:48:44.509Z,14.59
2019-05-21T10:49:44.585Z,14.66
2019-05-21T10:50:44.625Z,14.56
2019-05-21T10:51:44.703Z,14.63
2019-05-21T10:52:44.739Z,14.61
2019-05-21T10:53:44.803Z,14.52
2019-05-21T10:54:44.857Z,14.59
2019-05-21T10:55:44.915Z,14.60
2019-05-21T10:56:48.399Z,14.54
2019-05-21T10:57:45.030Z,14.63
2019-05-21T10:58:45.085Z,14.64
2019-05-21T10:59:45.143Z,14.59
2019-05-21T11:00:45.204Z,14.52
2019-05-21T11:01:45.260Z,14.63
2019-05-21T11:02:45.317Z,14.45
2019-05-21T11:03:45.374Z,14.49
2019-05-21T11:04:45.439Z,14.53
2019-05-21T11:05:45.515Z,14.46
2019-05-21T11:06:45.546Z,14.42
2019-05-21T11:07:45.623Z,14.52
2019-05-21T11:08:45.663Z,14.45
2019-05-21T11:09:45.761Z,14.56
2019-05-21T11:10:45.775Z,14.44
2019-05-21T11:11:45.844Z,14.46
2019-05-21T11:12:45.895Z,14.39
2019-05-21T11:13:45.951Z,14.36
2019-05-21T11:14:46.012Z,14.46
2019-05-21T11:15:46.575Z,14.49
2019-05-21T11:16:46.122Z,14.54
2019-05-21T11:17:59.214Z,14.53
2019-05-21T11:18:46.236Z,14.54
2019-05-21T11:19:46.368Z,14.41
2019-05-21T11:20:46.352Z,14.42
2019-05-21T11:21:46.410Z,14.44
2019-05-21T11:22:46.465Z,14.56
2019-05-21T11:23:46.534Z,14.53
2019-05-21T11:24:46.581Z,14.56
2019-05-21T11:25:47.173Z,14.48
2019-05-21T11:26:46.697Z,14.39
2019-05-21T11:27:46.753Z,14.39
2019-05-21T11:28:46.821Z,14.39
2019-05-21T11:29:46.869Z,14.41
2019-05-21T11:30:46.928Z,14.41
2019-05-21T11:31:56.462Z,14.39
2019-05-21T11:32:48.065Z,14.41
2019-05-21T11:33:47.135Z,14.45
2019-05-21T11:34:50.073Z,14.30
2019-05-21T11:35:47.213Z,14.29
2019-05-21T11:36:47.271Z,14.21
2019-05-21T11:37:48.111Z,14.31
2019-05-21T11:38:47.387Z,14.34
2019-05-21T11:39:47.444Z,14.35
2019-05-21T11:40:51.025Z,14.27
2019-05-21T11:41:47.560Z,14.35
2019-05-21T11:42:48.107Z,14.36
2019-05-21T11:43:47.672Z,14.26
2019-05-21T11:44:47.730Z,14.31
2019-05-21T11:45:47.789Z,14.24
2019-05-21T11:46:47.845Z,14.19
2019-05-21T11:47:47.903Z,14.11
2019-05-21T11:48:47.960Z,14.16
2019-05-21T11:49:48.017Z,14.11
2019-05-21T11:50:48.074Z,13.98
2019-05-21T11:51:48.133Z,14.02
2019-05-21T11:52:48.200Z,13.98
2019-05-21T11:53:48.247Z,13.99
2019-05-21T11:54:48.307Z,13.86
2019-05-21T11:55:48.397Z,13.98
2019-05-21T11:56:48.418Z,14.01
2019-05-21T11:57:48.476Z,14.04
2019-05-21T11:58:48.533Z,13.98
2019-05-21T11:59:48.590Z,13.87
2019-05-21T12:00:48.647Z,13.90
2019-05-21T12:01:48.706Z,13.87
2019-05-21T12:02:48.783Z,13.86
2019-05-21T12:03:48.820Z,13.86
2019-05-21T12:04:48.878Z,13.90
2019-05-21T12:05:48.933Z,14.01
2019-05-21T12:06:48.990Z,13.99
2019-05-21T12:07:49.400Z,14.05
2019-05-21T12:08:56.656Z,13.99
2019-05-21T12:09:49.163Z,14.02
2019-05-21T12:10:49.233Z,14.08
2019-05-21T12:11:49.277Z,13.99
2019-05-21T12:12:49.335Z,13.91
2019-05-21T12:13:49.396Z,14.01
2019-05-21T12:14:49.492Z,13.98
2019-05-21T12:15:49.508Z,13.87
2019-05-21T12:16:49.564Z,13.96
2019-05-21T12:17:49.621Z,13.88
2019-05-21T12:18:49.677Z,14.01
2019-05-21T12:19:49.735Z,13.87
2019-05-21T12:20:49.794Z,13.91
2019-05-21T12:21:49.848Z,13.87
2019-05-21T12:22:49.907Z,13.88
2019-05-21T12:23:49.964Z,13.84
2019-05-21T12:24:50.024Z,13.87
2019-05-21T12:25:50.077Z,13.90
2019-05-21T12:26:50.133Z,13.88
2019-05-21T12:27:50.190Z,14.02
2019-05-21T12:28:50.250Z,13.88
2019-05-21T12:29:50.305Z,13.86
2019-05-21T12:30:50.362Z,13.88
2019-05-21T12:31:50.420Z,13.94
2019-05-21T12:32:50.482Z,13.98
2019-05-21T12:33:50.534Z,13.93
2019-05-21T12:34:50.602Z,13.86
2019-05-21T12:35:50.648Z,14.02
2019-05-21T12:36:50.704Z,13.93
2019-05-21T12:37:50.762Z,13.91
2019-05-21T12:38:50.820Z,13.93
2019-05-21T12:39:50.875Z,13.96
2019-05-21T12:40:50.933Z,13.91
2019-05-21T12:41:50.990Z,13.81
2019-05-21T12:42:51.047Z,13.96
2019-05-21T12:43:51.119Z,13.90
2019-05-21T12:44:51.162Z,13.98
2019-05-21T12:45:51.219Z,13.99
2019-05-21T12:46:51.274Z,14.02
2019-05-21T12:47:51.341Z,13.96
2019-05-21T12:48:51.394Z,13.99
2019-05-21T12:49:51.446Z,14.01
2019-05-21T12:50:51.504Z,13.93
2019-05-21T12:51:51.596Z,13.96
2019-05-21T12:52:51.618Z,13.99